createdAt,value
2019-02-05T00:00:56.451Z,98.40
2019-02-05T00:03:25.475Z,98.70
2019-02-05T00:05:54.485Z,98.70
2019-02-05T00:08:24.142Z,98.70
2019-02-05T00:10:53.267Z,98.70
2019-02-05T00:13:22.298Z,98.50
2019-02-05T00:15:51.344Z,98.70
2019-02-05T00:18:20.640Z,98.50
2019-02-05T00:20:49.740Z,98.10
2019-02-05T00:23:19.248Z,98.20
2019-02-05T00:25:48.293Z,97.80
2019-02-05T00:28:17.320Z,97.60
2019-02-05T00:30:46.544Z,97.70
2019-02-05T00:33:16.336Z,97.80
2019-02-05T00:35:45.377Z,97.70
2019-02-05T00:38:14.412Z,97.50
2019-02-05T00:40:43.423Z,97.30
2019-02-05T00:43:12.728Z,97.30
2019-02-05T00:45:41.779Z,97.30
2019-02-05T00:48:10.721Z,97.70
2019-02-05T00:50:39.825Z,97.00
2019-02-05T00:53:09.107Z,96.40
2019-02-05T00:55:38.131Z,96.50
2019-02-05T00:58:07.155Z,97.10
2019-02-05T01:00:36.289Z,96.90
2019-02-05T01:03:05.836Z,96.80
2019-02-05T01:05:35.214Z,96.90
2019-02-05T01:08:04.343Z,96.70
2019-02-05T01:10:33.955Z,96.80
2019-02-05T01:13:02.964Z,96.90
2019-02-05T01:15:31.990Z,96.70
2019-02-05T01:18:00.974Z,97.00
2019-02-05T01:20:29.897Z,97.50
2019-02-05T01:22:59.224Z,97.20
2019-02-05T01:25:28.242Z,97.10
2019-02-05T01:27:57.240Z,97.10
2019-02-05T01:30:28.166Z,97.10
2019-02-05T01:32:57.175Z,97.00
2019-02-05T01:35:26.523Z,97.30
2019-02-05T01:37:55.579Z,97.40
2019-02-05T01:40:25.708Z,97.10
2019-02-05T01:42:55.242Z,97.20
2019-02-05T01:45:24.671Z,97.30
2019-02-05T01:47:53.621Z,97.30
2019-02-05T01:50:25.503Z,97.50
2019-02-05T01:52:55.467Z,97.70
2019-02-05T01:55:24.729Z,97.40
2019-02-05T01:57:53.733Z,97.40
2019-02-05T02:00:30.639Z,97.50
2019-02-05T02:02:59.267Z,97.60
2019-02-05T02:05:28.296Z,97.70
2019-02-05T02:07:57.814Z,97.50
2019-02-05T02:10:28.253Z,97.40
2019-02-05T02:12:58.988Z,97.50
2019-02-05T02:15:28.380Z,97.60
2019-02-05T02:17:57.812Z,97.80
2019-02-05T02:20:27.248Z,97.70
2019-02-05T02:22:56.905Z,97.70
2019-02-05T02:25:25.933Z,97.40
2019-02-05T02:27:55.057Z,97.50
2019-02-05T02:30:30.001Z,97.30
2019-02-05T02:32:59.017Z,97.40
2019-02-05T02:35:28.032Z,97.40
2019-02-05T02:37:57.428Z,97.30
2019-02-05T02:40:26.445Z,97.30
2019-02-05T02:42:55.440Z,97.50
2019-02-05T02:45:24.418Z,97.40
2019-02-05T02:47:54.024Z,97.10
2019-02-05T02:50:23.033Z,96.90
2019-02-05T02:52:52.176Z,97.00
2019-02-05T02:55:21.208Z,97.20
2019-02-05T02:57:50.510Z,97.50
2019-02-05T03:00:20.513Z,97.40
2019-02-05T03:02:50.087Z,97.50
2019-02-05T03:05:20.927Z,97.40
2019-02-05T03:07:50.244Z,97.60
2019-02-05T03:10:21.579Z,97.60
2019-02-05T03:12:50.900Z,98.00
2019-02-05T03:15:20.994Z,97.50
2019-02-05T03:17:50.080Z,97.60
2019-02-05T03:20:19.181Z,97.40
2019-02-05T03:22:48.557Z,97.00
2019-02-05T03:25:20.033Z,97.10
2019-02-05T03:27:49.064Z,97.00
2019-02-05T03:30:19.804Z,97.10
2019-02-05T03:32:49.202Z,96.90
2019-02-05T03:35:18.320Z,96.80
2019-02-05T03:37:48.010Z,96.90
2019-02-05T03:41:04.230Z,96.90
2019-02-05T03:43:34.676Z,96.90
2019-02-05T03:46:19.650Z,97.00
2019-02-05T03:48:50.219Z,97.10
2019-02-05T03:51:56.528Z,96.90
2019-02-05T03:55:10.541Z,97.10
2019-02-05T03:58:35.822Z,97.00
2019-02-05T04:01:44.347Z,97.10
2019-02-05T04:05:07.951Z,97.10
2019-02-05T04:08:17.436Z,97.20
2019-02-05T04:11:19.439Z,97.10
2019-02-05T04:14:11.670Z,96.90
2019-02-05T04:17:16.927Z,96.90
2019-02-05T04:20:05.893Z,96.50
2019-02-05T04:23:21.103Z,96.80
2019-02-05T04:26:15.988Z,97.00
2019-02-05T04:29:07.266Z,97.10
2019-02-05T04:32:05.901Z,97.30
2019-02-05T04:34:55.919Z,97.10
2019-02-05T04:37:59.866Z,97.00
2019-02-05T04:40:49.924Z,96.60
2019-02-05T04:43:31.857Z,97.00
2019-02-05T04:46:23.631Z,96.80
2019-02-05T04:49:44.708Z,96.60
2019-02-05T04:52:49.500Z,96.50
2019-02-05T04:56:00.202Z,96.60
2019-02-05T04:58:50.653Z,96.90
2019-02-05T05:02:06.906Z,96.90
2019-02-05T05:05:10.812Z,97.10
2019-02-05T05:08:17.473Z,97.20
2019-02-05T05:10:46.479Z,96.90
2019-02-05T05:13:15.507Z,96.40
2019-02-05T05:15:44.604Z,96.30
2019-02-05T05:18:15.670Z,96.50
2019-02-05T05:20:45.164Z,96.20
2019-02-05T05:23:14.416Z,96.10
2019-02-05T05:25:43.437Z,96.10
2019-02-05T05:28:12.374Z,95.80
2019-02-05T05:30:41.436Z,95.80
2019-02-05T05:33:10.820Z,95.90
2019-02-05T05:35:44.153Z,95.90
2019-02-05T05:38:10.544Z,95.90
2019-02-05T05:40:39.548Z,96.30
2019-02-05T05:43:09.193Z,96.40
2019-02-05T05:45:38.161Z,96.00
2019-02-05T05:48:07.198Z,95.80
2019-02-05T05:50:36.120Z,95.80
2019-02-05T05:53:05.340Z,95.70
2019-02-05T05:55:34.284Z,96.00
2019-02-05T05:58:03.262Z,96.00
2019-02-05T06:00:32.310Z,96.10
2019-02-05T06:03:01.216Z,96.50
2019-02-05T06:05:30.712Z,96.70
2019-02-05T06:07:59.802Z,96.60
2019-02-05T06:10:29.000Z,96.70
2019-02-05T06:12:58.063Z,96.60
2019-02-05T06:15:27.107Z,96.50
2019-02-05T06:17:56.137Z,96.50
2019-02-05T06:20:25.243Z,96.50
2019-02-05T06:22:54.668Z,96.40
2019-02-05T06:25:23.921Z,96.10
2019-02-05T06:27:53.196Z,96.10
2019-02-05T06:30:22.251Z,96.00
2019-02-05T06:32:51.274Z,96.20
2019-02-05T06:35:20.356Z,96.30
2019-02-05T06:37:49.609Z,96.30
2019-02-05T06:40:20.141Z,96.30
2019-02-05T06:42:49.067Z,96.40
2019-02-05T06:45:18.087Z,96.50
2019-02-05T06:47:47.082Z,96.50
2019-02-05T06:50:16.084Z,96.10
2019-02-05T06:52:45.144Z,96.20
2019-02-05T06:55:14.848Z,96.70
2019-02-05T06:57:43.854Z,96.50
2019-02-05T07:00:16.974Z,96.40
2019-02-05T07:02:46.082Z,96.30
2019-02-05T07:05:15.836Z,96.40
2019-02-05T07:07:44.870Z,96.40
2019-02-05T07:10:16.924Z,96.50
2019-02-05T07:12:45.913Z,96.60
2019-02-05T07:15:15.048Z,96.60
2019-02-05T07:17:49.670Z,96.60
2019-02-05T07:20:15.527Z,96.50
2019-02-05T07:22:44.932Z,96.50
2019-02-05T07:25:15.688Z,96.40
2019-02-05T07:27:45.183Z,96.30
2019-02-05T07:30:17.088Z,96.30
2019-02-05T07:32:46.112Z,96.10
2019-02-05T07:35:15.184Z,95.60
2019-02-05T07:37:44.314Z,95.70
2019-02-05T07:40:14.961Z,95.70
2019-02-05T07:42:44.293Z,95.80
2019-02-05T07:45:15.801Z,95.70
2019-02-05T07:47:44.700Z,95.50
2019-02-05T07:50:16.603Z,95.60
2019-02-05T07:52:45.708Z,95.50
2019-02-05T07:55:14.800Z,95.30
2019-02-05T07:57:44.097Z,95.20
2019-02-05T08:00:21.672Z,95.00
2019-02-05T08:02:50.804Z,95.00
2019-02-05T08:05:25.497Z,95.10
2019-02-05T08:07:54.495Z,95.30
2019-02-05T08:10:23.845Z,95.20
2019-02-05T08:12:53.405Z,95.00
2019-02-05T08:15:25.556Z,95.10
2019-02-05T08:17:54.585Z,95.10
2019-02-05T08:20:23.620Z,95.30
2019-02-05T08:22:53.508Z,95.10
2019-02-05T08:25:23.597Z,94.60
2019-02-05T08:27:52.639Z,94.80
2019-02-05T08:30:25.017Z,94.80
2019-02-05T08:32:54.080Z,94.70
2019-02-05T08:35:23.212Z,94.80
2019-02-05T08:37:52.225Z,95.00
2019-02-05T08:40:21.271Z,95.20
2019-02-05T08:42:50.540Z,95.00
2019-02-05T08:45:21.529Z,95.70
2019-02-05T08:47:50.768Z,95.00
2019-02-05T08:50:22.116Z,95.10
2019-02-05T08:52:51.120Z,94.30
2019-02-05T08:55:20.540Z,94.80
2019-02-05T08:57:50.147Z,94.90
2019-02-05T09:00:24.495Z,95.00
2019-02-05T09:02:53.588Z,94.50
2019-02-05T09:05:22.839Z,94.30
2019-02-05T09:07:51.767Z,94.20
2019-02-05T09:10:29.408Z,94.00
2019-02-05T09:12:58.525Z,93.90
2019-02-05T09:15:29.475Z,94.50
2019-02-05T09:17:59.041Z,94.60
2019-02-05T09:20:28.036Z,94.20
2019-02-05T09:22:57.056Z,94.20
2019-02-05T09:25:26.081Z,94.80
2019-02-05T09:27:55.069Z,94.90
2019-02-05T09:30:26.130Z,95.00
2019-02-05T09:32:57.003Z,94.30
2019-02-05T09:35:26.009Z,93.80
2019-02-05T09:37:57.742Z,93.80
2019-02-05T09:40:30.759Z,93.50
2019-02-05T09:43:00.307Z,93.50
2019-02-05T09:45:30.530Z,93.70
2019-02-05T09:47:59.974Z,93.60
2019-02-05T09:50:30.981Z,94.00
2019-02-05T09:52:59.953Z,94.00
2019-02-05T09:55:29.856Z,93.60
2019-02-05T09:57:58.847Z,93.50
2019-02-05T10:00:33.845Z,93.40
2019-02-05T10:03:02.984Z,93.10
2019-02-05T10:05:32.711Z,93.00
2019-02-05T10:08:01.727Z,93.10
2019-02-05T10:10:30.916Z,93.20
2019-02-05T10:13:00.221Z,93.20
2019-02-05T10:15:33.832Z,93.20
2019-02-05T10:18:03.548Z,92.30
2019-02-05T10:20:32.668Z,92.00
2019-02-05T10:23:04.465Z,92.80
2019-02-05T10:25:33.623Z,93.10
2019-02-05T10:28:02.747Z,92.70
2019-02-05T10:30:34.095Z,92.60
2019-02-05T10:33:03.838Z,93.10
2019-02-05T10:35:33.112Z,92.90
2019-02-05T10:38:02.203Z,92.90
2019-02-05T10:40:31.356Z,92.40
2019-02-05T10:43:00.387Z,92.50
2019-02-05T10:45:29.502Z,92.20
2019-02-05T10:47:58.515Z,91.80
2019-02-05T10:50:27.622Z,91.60
2019-02-05T10:52:56.740Z,91.40
2019-02-05T10:55:25.749Z,91.60
2019-02-05T10:57:54.904Z,92.00
2019-02-05T11:00:26.389Z,91.30
2019-02-05T11:02:56.664Z,91.70
2019-02-05T11:05:27.938Z,91.60
2019-02-05T11:07:57.007Z,91.80
2019-02-05T11:10:26.108Z,92.30
2019-02-05T11:12:55.302Z,92.20
2019-02-05T11:15:29.665Z,92.00
2019-02-05T11:17:58.893Z,91.90
2019-02-05T11:20:28.952Z,92.00
2019-02-05T11:22:58.579Z,92.60
2019-02-05T11:25:27.600Z,92.40
2019-02-05T11:27:56.718Z,92.30
2019-02-05T11:30:28.667Z,92.10
2019-02-05T11:32:57.670Z,92.10
2019-02-05T11:35:26.721Z,91.60
2019-02-05T11:37:55.840Z,91.80
2019-02-05T11:40:28.348Z,91.80
2019-02-05T11:42:57.451Z,91.00
2019-02-05T11:45:26.909Z,91.30
2019-02-05T11:47:56.244Z,91.50
2019-02-05T11:50:25.637Z,91.30
2019-02-05T11:52:55.156Z,91.30
2019-02-05T11:55:25.685Z,91.40
2019-02-05T11:57:54.782Z,91.80
2019-02-05T12:00:50.677Z,91.60
2019-02-05T12:03:20.425Z,91.00
2019-02-05T12:05:49.552Z,90.80
2019-02-05T12:08:18.831Z,90.60
2019-02-05T12:10:48.244Z,91.00
2019-02-05T12:13:17.427Z,90.80
2019-02-05T12:15:46.855Z,91.10
2019-02-05T12:18:16.035Z,90.20
2019-02-05T12:20:45.350Z,90.30
2019-02-05T12:23:14.400Z,90.30
2019-02-05T12:25:43.393Z,90.80
2019-02-05T12:28:12.533Z,90.80
2019-02-05T12:30:45.630Z,90.20
2019-02-05T12:33:12.601Z,89.80
2019-02-05T12:35:41.725Z,90.20
2019-02-05T12:38:11.053Z,89.90
2019-02-05T12:40:47.268Z,89.20
2019-02-05T12:43:16.501Z,89.10
2019-02-05T12:45:45.720Z,89.30
2019-02-05T12:48:14.780Z,88.50
2019-02-05T12:50:44.181Z,88.30
2019-02-05T12:53:13.701Z,89.60
2019-02-05T12:55:42.725Z,89.20
2019-02-05T12:58:11.736Z,87.20
2019-02-05T13:00:43.294Z,88.40
2019-02-05T13:03:12.762Z,88.90
2019-02-05T13:05:43.391Z,89.10
2019-02-05T13:08:12.389Z,88.00
2019-02-05T13:10:43.790Z,88.10
2019-02-05T13:13:12.926Z,87.10
2019-02-05T13:15:42.041Z,87.70
2019-02-05T13:18:11.103Z,87.70
2019-02-05T13:20:40.551Z,87.80
2019-02-05T13:23:10.315Z,88.60
2019-02-05T13:25:39.767Z,89.20
2019-02-05T13:28:11.372Z,88.30
2019-02-05T13:30:40.505Z,88.20
2019-02-05T13:33:09.841Z,87.40
2019-02-05T13:35:40.654Z,87.00
2019-02-05T13:38:09.687Z,87.20
2019-02-05T13:40:38.686Z,87.50
2019-02-05T13:43:07.945Z,87.10
2019-02-05T13:45:37.926Z,87.00
2019-02-05T13:48:07.770Z,87.20
2019-02-05T13:50:37.004Z,87.50
2019-02-05T13:53:06.452Z,87.80
2019-02-05T13:55:38.206Z,88.60
2019-02-05T13:58:07.232Z,89.20
2019-02-05T14:00:41.647Z,88.80
2019-02-05T14:03:11.367Z,88.70
2019-02-05T14:05:40.393Z,90.10
2019-02-05T14:08:09.559Z,89.00
2019-02-05T14:10:38.816Z,90.10
2019-02-05T14:13:07.935Z,89.60
2019-02-05T14:15:38.672Z,89.70
2019-02-05T14:18:08.696Z,90.10
2019-02-05T14:20:38.160Z,90.20
2019-02-05T14:23:07.653Z,90.50
2019-02-05T14:25:36.676Z,90.40
2019-02-05T14:28:05.757Z,90.60
2019-02-05T14:30:52.497Z,90.70
2019-02-05T14:33:22.365Z,90.50
2019-02-05T14:35:51.400Z,90.40
2019-02-05T14:38:20.783Z,90.40
2019-02-05T14:40:49.754Z,90.80
2019-02-05T14:43:18.757Z,90.70
2019-02-05T14:45:47.824Z,91.00
2019-02-05T14:48:16.832Z,91.00
2019-02-05T14:50:46.811Z,91.00
2019-02-05T14:53:15.887Z,91.20
2019-02-05T14:55:44.829Z,91.40
2019-02-05T14:58:15.440Z,91.80
2019-02-05T15:00:44.443Z,91.70
2019-02-05T15:03:14.412Z,91.70
2019-02-05T15:05:44.552Z,91.60
2019-02-05T15:08:14.659Z,91.30
2019-02-05T15:10:43.701Z,91.90
2019-02-05T15:13:15.879Z,92.20
2019-02-05T15:15:43.811Z,92.30
2019-02-05T15:18:15.968Z,92.50
2019-02-05T15:20:46.910Z,92.50
2019-02-05T15:23:15.996Z,92.50
2019-02-05T15:25:45.139Z,92.60
2019-02-05T15:28:14.159Z,93.10
2019-02-05T15:30:43.964Z,92.90
2019-02-05T15:33:31.691Z,93.20
2019-02-05T15:36:09.776Z,93.00
2019-02-05T15:38:38.761Z,93.20
2019-02-05T15:41:07.772Z,92.70
2019-02-05T15:43:36.687Z,93.00
2019-02-05T15:46:05.781Z,93.10
2019-02-05T15:48:34.773Z,93.50
2019-02-05T15:51:04.259Z,93.40
2019-02-05T15:53:33.299Z,93.70
2019-02-05T15:56:02.305Z,94.00
2019-02-05T15:58:31.336Z,94.00
2019-02-05T16:01:00.336Z,94.40
2019-02-05T16:03:29.266Z,94.10
2019-02-05T16:05:58.302Z,94.30
2019-02-05T16:08:27.324Z,94.40
2019-02-05T16:10:56.381Z,94.70
2019-02-05T16:13:25.323Z,94.30
2019-02-05T16:15:54.322Z,94.10
2019-02-05T16:18:23.331Z,94.50
2019-02-05T16:20:52.320Z,94.70
2019-02-05T16:23:21.638Z,94.80
2019-02-05T16:25:50.629Z,95.00
2019-02-05T16:28:19.670Z,95.10
2019-02-05T16:30:48.703Z,95.20
2019-02-05T16:33:17.617Z,94.80
2019-02-05T16:35:46.632Z,95.10
2019-02-05T16:38:16.039Z,95.20
2019-02-05T16:40:45.064Z,95.10
2019-02-05T16:43:14.028Z,95.10
2019-02-05T16:45:43.028Z,94.80
2019-02-05T16:48:12.084Z,94.60
2019-02-05T16:50:43.228Z,94.70
2019-02-05T16:53:12.749Z,95.10
2019-02-05T16:56:00.890Z,95.60
2019-02-05T16:58:29.889Z,95.60
2019-02-05T17:00:58.867Z,95.40
2019-02-05T17:03:27.792Z,95.40
2019-02-05T17:05:56.877Z,95.70
2019-02-05T17:08:26.049Z,95.70
2019-02-05T17:10:55.195Z,95.70
2019-02-05T17:13:24.191Z,95.90
2019-02-05T17:15:53.292Z,96.00
2019-02-05T17:18:23.976Z,96.00
2019-02-05T17:20:53.292Z,96.00
2019-02-05T17:23:22.268Z,96.20
2019-02-05T17:25:51.321Z,96.50
2019-02-05T17:28:20.356Z,96.50
2019-02-05T17:30:49.842Z,96.40
2019-02-05T17:33:18.841Z,96.50
2019-02-05T17:35:48.220Z,96.40
2019-02-05T17:38:17.704Z,96.30
2019-02-05T17:40:46.713Z,96.50
2019-02-05T17:43:15.774Z,96.40
2019-02-05T17:45:45.268Z,96.40
2019-02-05T17:48:16.975Z,96.20
2019-02-05T17:50:46.227Z,96.20
2019-02-05T17:53:15.288Z,96.10
2019-02-05T17:55:44.318Z,96.00
2019-02-05T17:58:13.424Z,96.00
2019-02-05T18:00:55.070Z,96.20
2019-02-05T18:03:24.305Z,96.20
2019-02-05T18:05:53.366Z,96.40
2019-02-05T18:08:22.429Z,96.60
2019-02-05T18:10:51.424Z,96.70
2019-02-05T18:13:20.503Z,96.50
2019-02-05T18:15:49.472Z,96.20
2019-02-05T18:18:18.878Z,96.30
2019-02-05T18:20:47.966Z,96.30
2019-02-05T18:23:17.029Z,96.00
2019-02-05T18:25:46.088Z,96.10
2019-02-05T18:28:15.098Z,96.10
2019-02-05T18:30:45.172Z,96.40
2019-02-05T18:33:14.480Z,96.50
2019-02-05T18:35:43.454Z,96.50
2019-02-05T18:38:14.340Z,96.30
2019-02-05T18:40:43.407Z,96.30
2019-02-05T18:43:12.561Z,96.30
2019-02-05T18:45:41.652Z,96.40
2019-02-05T18:48:11.109Z,96.20
2019-02-05T18:50:40.187Z,96.10
2019-02-05T18:53:11.674Z,96.00
2019-02-05T18:55:40.381Z,96.40
2019-02-05T18:58:10.036Z,96.40
2019-02-05T19:00:40.680Z,96.40
2019-02-05T19:03:15.651Z,96.50
2019-02-05T19:05:40.864Z,96.50
2019-02-05T19:08:09.998Z,96.40
2019-02-05T19:10:39.319Z,96.70
2019-02-05T19:13:08.493Z,97.00
2019-02-05T19:15:37.978Z,96.90
2019-02-05T19:18:08.317Z,96.70
2019-02-05T19:20:37.376Z,96.80
2019-02-05T19:23:08.053Z,97.10
2019-02-05T19:25:54.998Z,97.20
2019-02-05T19:28:27.844Z,97.20
2019-02-05T19:30:59.675Z,97.10
2019-02-05T19:33:28.742Z,97.10
2019-02-05T19:35:57.783Z,97.40
2019-02-05T19:38:26.864Z,97.40
2019-02-05T19:40:57.526Z,97.00
2019-02-05T19:43:26.683Z,97.10
2019-02-05T19:46:20.956Z,97.10
2019-02-05T19:48:53.985Z,97.40
2019-02-05T19:51:23.130Z,97.40
2019-02-05T19:53:53.967Z,97.30
2019-02-05T19:56:22.940Z,97.40
2019-02-05T19:58:51.978Z,97.10
2019-02-05T20:01:21.061Z,96.60
2019-02-05T20:03:50.117Z,96.60
2019-02-05T20:06:19.161Z,96.80
2019-02-05T20:08:48.220Z,97.10
2019-02-05T20:11:17.397Z,96.50
2019-02-05T20:13:46.460Z,96.70
2019-02-05T20:16:15.557Z,96.90
2019-02-05T20:18:44.608Z,97.20
2019-02-05T20:21:13.636Z,97.10
2019-02-05T20:23:42.696Z,97.10
2019-02-05T20:26:11.749Z,97.30
2019-02-05T20:28:40.986Z,97.10
2019-02-05T20:31:10.060Z,97.40
2019-02-05T20:33:49.401Z,97.40
2019-02-05T20:36:10.027Z,97.50
2019-02-05T20:38:39.201Z,97.50
2019-02-05T20:41:08.308Z,97.60
2019-02-05T20:43:37.689Z,97.70
2019-02-05T20:46:06.764Z,97.80
2019-02-05T20:48:35.839Z,97.70
2019-02-05T20:51:05.037Z,97.70
2019-02-05T20:53:34.134Z,98.00
2019-02-05T20:56:03.204Z,97.40
2019-02-05T20:58:32.525Z,97.40
2019-02-05T21:01:02.095Z,97.50
2019-02-05T21:03:31.152Z,97.70
2019-02-05T21:06:00.194Z,97.50
2019-02-05T21:08:29.295Z,97.30
2019-02-05T21:10:58.262Z,97.10
2019-02-05T21:13:27.211Z,97.40
2019-02-05T21:15:56.291Z,97.60
2019-02-05T21:18:25.751Z,97.60
2019-02-05T21:20:54.825Z,97.90
2019-02-05T21:23:23.805Z,97.80
2019-02-05T21:25:52.816Z,97.70
2019-02-05T21:28:22.091Z,97.60
2019-02-05T21:30:51.176Z,97.60
2019-02-05T21:33:20.655Z,97.90
2019-02-05T21:35:49.641Z,98.00
2019-02-05T21:38:18.941Z,98.10
2019-02-05T21:40:48.752Z,98.00
2019-02-05T21:43:18.020Z,97.90
2019-02-05T21:45:47.012Z,98.10
2019-02-05T21:48:16.035Z,98.00
2019-02-05T21:50:45.063Z,97.90
2019-02-05T21:53:14.124Z,97.90
2019-02-05T21:55:43.152Z,98.00
2019-02-05T21:58:12.653Z,97.90
2019-02-05T22:00:42.015Z,98.10
2019-02-05T22:03:11.157Z,98.00
2019-02-05T22:05:40.415Z,97.90
2019-02-05T22:08:09.843Z,98.00
2019-02-05T22:10:38.843Z,97.60
2019-02-05T22:13:07.868Z,97.50
2019-02-05T22:15:36.944Z,97.40
2019-02-05T22:18:06.033Z,97.80
2019-02-05T22:20:35.194Z,97.90
2019-02-05T22:23:04.276Z,97.80
2019-02-05T22:25:33.390Z,97.70
2019-02-05T22:28:02.782Z,97.70
2019-02-05T22:30:33.272Z,98.00
2019-02-05T22:33:02.746Z,97.90
2019-02-05T22:35:31.898Z,97.80
2019-02-05T22:38:01.016Z,97.90
2019-02-05T22:40:30.169Z,97.90
2019-02-05T22:42:59.183Z,97.70
2019-02-05T22:45:29.668Z,97.60
2019-02-05T22:47:58.730Z,97.60
2019-02-05T22:50:29.695Z,97.80
2019-02-05T22:52:59.468Z,97.30
2019-02-05T22:55:28.507Z,97.00
2019-02-05T22:57:57.872Z,97.20
2019-02-05T23:00:52.116Z,97.40
2019-02-05T23:03:25.109Z,97.40
2019-02-05T23:06:22.705Z,97.40
2019-02-05T23:08:51.925Z,97.60
2019-02-05T23:11:45.941Z,97.40
2019-02-05T23:14:14.981Z,97.10
2019-02-05T23:16:44.013Z,96.80
2019-02-05T23:19:12.975Z,97.30
2019-02-05T23:21:42.365Z,97.30
2019-02-05T23:24:11.379Z,97.40
2019-02-05T23:26:40.421Z,97.30
2019-02-05T23:29:09.446Z,97.60
2019-02-05T23:31:38.461Z,98.00
2019-02-05T23:34:07.576Z,98.00
2019-02-05T23:36:37.064Z,98.00
2019-02-05T23:39:07.376Z,98.00
2019-02-05T23:41:36.339Z,98.00
2019-02-05T23:44:05.562Z,98.00
2019-02-05T23:46:34.568Z,98.00
2019-02-05T23:49:03.616Z,97.90
2019-02-05T23:51:32.825Z,97.30
2019-02-05T23:54:01.760Z,97.30
2019-02-05T23:56:30.724Z,97.10
2019-02-05T23:58:59.663Z,97.00
